Johan Adolf Pengel International Airport

SMJP | PBM

Zandery , Para , Suriname

Thursday, September 19th, 2019 | 16:21

Weather

SMJP 191900Z VRB04KT 9999 SCT035 35/22 Q1007 NOSIG

Charts

1 Available

Gates

10 Available

Runways

1 Available

Events

No events for this airport


New event